sensor_id;sensor_type;location;lat;lon;timestamp;temperature;humidity
2002;DHT22;1003;48.002;7.788;2022-07-29T00:00:15;19.30;99.90
2002;DHT22;1003;48.002;7.788;2022-07-29T00:02:43;19.30;99.90
2002;DHT22;1003;48.002;7.788;2022-07-29T00:05:10;19.30;99.90
2002;DHT22;1003;48.002;7.788;2022-07-29T00:07:39;19.10;99.90
2002;DHT22;1003;48.002;7.788;2022-07-29T00:10:07;19.40;99.90
2002;DHT22;1003;48.002;7.788;2022-07-29T00:12:34;19.30;99.90
2002;DHT22;1003;48.002;7.788;2022-07-29T00:15:03;19.30;99.90
2002;DHT22;1003;48.002;7.788;2022-07-29T00:17:31;19.20;99.90
2002;DHT22;1003;48.002;7.788;2022-07-29T00:19:59;19.20;99.90
2002;DHT22;1003;48.002;7.788;2022-07-29T00:22:26;19.30;99.90
2002;DHT22;1003;48.002;7.788;2022-07-29T00:24:53;19.00;99.90
2002;DHT22;1003;48.002;7.788;2022-07-29T00:27:21;19.10;99.90
2002;DHT22;1003;48.002;7.788;2022-07-29T00:29:48;19.00;99.90
2002;DHT22;1003;48.002;7.788;2022-07-29T00:32:16;19.10;99.90
2002;DHT22;1003;48.002;7.788;2022-07-29T00:34:43;19.00;99.90
2002;DHT22;1003;48.002;7.788;2022-07-29T00:37:28;18.90;99.90
2002;DHT22;1003;48.002;7.788;2022-07-29T00:39:55;18.90;99.90
2002;DHT22;1003;48.002;7.788;2022-07-29T00:42:22;18.80;99.90
2002;DHT22;1003;48.002;7.788;2022-07-29T00:44:49;18.80;99.90
2002;DHT22;1003;48.002;7.788;2022-07-29T00:47:18;18.60;99.90
2002;DHT22;1003;48.002;7.788;2022-07-29T00:49:45;18.90;99.90
2002;DHT22;1003;48.002;7.788;2022-07-29T00:52:13;18.70;99.90
2002;DHT22;1003;48.002;7.788;2022-07-29T00:54:40;18.70;99.90
2002;DHT22;1003;48.002;7.788;2022-07-29T00:57:07;18.60;99.90
2002;DHT22;1003;48.002;7.788;2022-07-29T00:59:34;18.70;99.90
2002;DHT22;1003;48.002;7.788;2022-07-29T01:02:02;18.70;99.90
2002;DHT22;1003;48.002;7.788;2022-07-29T01:04:31;18.80;99.90
2002;DHT22;1003;48.002;7.788;2022-07-29T01:07:00;18.70;99.90
2002;DHT22;1003;48.002;7.788;2022-07-29T01:09:29;18.50;99.90
2002;DHT22;1003;48.002;7.788;2022-07-29T01:11:59;18.50;99.90
2002;DHT22;1003;48.002;7.788;2022-07-29T01:14:27;18.60;99.90
2002;DHT22;1003;48.002;7.788;2022-07-29T01:17:00;18.40;99.90
2002;DHT22;1003;48.002;7.788;2022-07-29T01:19:48;18.30;99.90
2002;DHT22;1003;48.002;7.788;2022-07-29T01:22:29;18.40;99.90
2002;DHT22;1003;48.002;7.788;2022-07-29T01:28:37;18.40;99.90
2002;DHT22;1003;48.002;7.788;2022-07-29T01:31:15;18.10;99.90
2002;DHT22;1003;48.002;7.788;2022-07-29T01:33:50;18.20;99.90
2002;DHT22;1003;48.002;7.788;2022-07-29T01:36:32;18.20;99.90
2002;DHT22;1003;48.002;7.788;2022-07-29T01:39:09;18.10;99.90
2002;DHT22;1003;48.002;7.788;2022-07-29T01:41:42;18.00;99.90
2002;DHT22;1003;48.002;7.788;2022-07-29T01:44:20;18.20;99.90
2002;DHT22;1003;48.002;7.788;2022-07-29T01:46:57;18.10;99.90
2002;DHT22;1003;48.002;7.788;2022-07-29T01:49:31;18.10;99.90
2002;DHT22;1003;48.002;7.788;2022-07-29T01:52:05;18.00;99.90
2002;DHT22;1003;48.002;7.788;2022-07-29T01:54:38;18.10;99.90
2002;DHT22;1003;48.002;7.788;2022-07-29T01:57:09;18.20;99.90
2002;DHT22;1003;48.002;7.788;2022-07-29T01:59:42;18.20;99.90
2002;DHT22;1003;48.002;7.788;2022-07-29T02:02:14;18.30;99.90
2002;DHT22;1003;48.002;7.788;2022-07-29T02:04:44;18.10;99.90
2002;DHT22;1003;48.002;7.788;2022-07-29T02:07:15;18.30;99.90
2002;DHT22;1003;48.002;7.788;2022-07-29T02:09:46;18.20;99.90
2002;DHT22;1003;48.002;7.788;2022-07-29T02:12:17;18.30;99.90
2002;DHT22;1003;48.002;7.788;2022-07-29T02:14:49;18.40;99.90
2002;DHT22;1003;48.002;7.788;2022-07-29T02:17:22;18.40;99.90
2002;DHT22;1003;48.002;7.788;2022-07-29T02:19:57;18.50;99.90
2002;DHT22;1003;48.002;7.788;2022-07-29T02:22:29;18.60;99.90
2002;DHT22;1003;48.002;7.788;2022-07-29T02:24:58;18.40;99.90
2002;DHT22;1003;48.002;7.788;2022-07-29T02:27:28;18.40;99.90
2002;DHT22;1003;48.002;7.788;2022-07-29T02:29:58;18.50;99.90
2002;DHT22;1003;48.002;7.788;2022-07-29T02:32:28;18.50;99.90
2002;DHT22;1003;48.002;7.788;2022-07-29T02:34:58;18.50;99.90
2002;DHT22;1003;48.002;7.788;2022-07-29T02:37:28;18.70;99.90
2002;DHT22;1003;48.002;7.788;2022-07-29T02:39:57;18.50;99.90
2002;DHT22;1003;48.002;7.788;2022-07-29T02:42:26;18.60;99.90
2002;DHT22;1003;48.002;7.788;2022-07-29T02:44:56;18.50;99.90
2002;DHT22;1003;48.002;7.788;2022-07-29T02:47:30;18.50;99.90
2002;DHT22;1003;48.002;7.788;2022-07-29T02:50:06;18.40;99.90
2002;DHT22;1003;48.002;7.788;2022-07-29T02:52:41;18.50;99.90
2002;DHT22;1003;48.002;7.788;2022-07-29T02:55:19;18.50;99.90
2002;DHT22;1003;48.002;7.788;2022-07-29T02:57:57;18.40;99.90
2002;DHT22;1003;48.002;7.788;2022-07-29T03:00:31;18.30;99.90
2002;DHT22;1003;48.002;7.788;2022-07-29T03:03:04;18.30;99.90
2002;DHT22;1003;48.002;7.788;2022-07-29T03:05:35;18.20;99.90
2002;DHT22;1003;48.002;7.788;2022-07-29T03:08:04;18.20;99.90
2002;DHT22;1003;48.002;7.788;2022-07-29T03:10:34;18.20;99.90
2002;DHT22;1003;48.002;7.788;2022-07-29T03:13:04;18.20;99.90
2002;DHT22;1003;48.002;7.788;2022-07-29T03:15:33;18.20;99.90
2002;DHT22;1003;48.002;7.788;2022-07-29T03:18:02;18.10;99.90
2002;DHT22;1003;48.002;7.788;2022-07-29T03:20:30;18.00;99.90
2002;DHT22;1003;48.002;7.788;2022-07-29T03:22:57;17.90;99.90
2002;DHT22;1003;48.002;7.788;2022-07-29T03:25:24;17.90;99.90
2002;DHT22;1003;48.002;7.788;2022-07-29T03:27:52;17.90;99.90
2002;DHT22;1003;48.002;7.788;2022-07-29T03:30:19;17.90;99.90
2002;DHT22;1003;48.002;7.788;2022-07-29T03:32:48;17.90;99.90
2002;DHT22;1003;48.002;7.788;2022-07-29T03:35:16;17.80;99.90
2002;DHT22;1003;48.002;7.788;2022-07-29T03:37:43;17.80;99.90
2002;DHT22;1003;48.002;7.788;2022-07-29T03:40:13;18.00;99.90
2002;DHT22;1003;48.002;7.788;2022-07-29T03:42:45;17.80;99.90
2002;DHT22;1003;48.002;7.788;2022-07-29T03:45:17;17.70;99.90
2002;DHT22;1003;48.002;7.788;2022-07-29T03:47:51;17.90;99.90
2002;DHT22;1003;48.002;7.788;2022-07-29T03:50:24;17.80;99.90
2002;DHT22;1003;48.002;7.788;2022-07-29T03:52:51;17.70;99.90
2002;DHT22;1003;48.002;7.788;2022-07-29T03:55:19;17.70;99.90
2002;DHT22;1003;48.002;7.788;2022-07-29T03:57:47;17.70;99.90
2002;DHT22;1003;48.002;7.788;2022-07-29T04:00:16;17.70;99.90
2002;DHT22;1003;48.002;7.788;2022-07-29T04:02:44;17.70;99.90
2002;DHT22;1003;48.002;7.788;2022-07-29T04:05:15;17.70;99.90
2002;DHT22;1003;48.002;7.788;2022-07-29T04:07:43;17.70;99.90
2002;DHT22;1003;48.002;7.788;2022-07-29T04:10:11;17.80;99.90
2002;DHT22;1003;48.002;7.788;2022-07-29T04:12:38;17.70;99.90
2002;DHT22;1003;48.002;7.788;2022-07-29T04:15:06;17.80;99.90
2002;DHT22;1003;48.002;7.788;2022-07-29T04:17:34;17.90;99.90
2002;DHT22;1003;48.002;7.788;2022-07-29T04:20:01;18.00;99.90
2002;DHT22;1003;48.002;7.788;2022-07-29T04:22:30;18.00;99.90
2002;DHT22;1003;48.002;7.788;2022-07-29T04:24:57;18.10;99.90
2002;DHT22;1003;48.002;7.788;2022-07-29T04:27:25;18.00;99.90
2002;DHT22;1003;48.002;7.788;2022-07-29T04:29:52;18.20;99.90
2002;DHT22;1003;48.002;7.788;2022-07-29T04:32:19;18.00;99.90
2002;DHT22;1003;48.002;7.788;2022-07-29T04:34:46;18.20;99.90
2002;DHT22;1003;48.002;7.788;2022-07-29T04:37:13;18.10;99.90
2002;DHT22;1003;48.002;7.788;2022-07-29T04:39:41;18.20;99.90
2002;DHT22;1003;48.002;7.788;2022-07-29T04:42:09;18.50;99.90
2002;DHT22;1003;48.002;7.788;2022-07-29T04:44:36;18.30;99.90
2002;DHT22;1003;48.002;7.788;2022-07-29T04:47:04;18.50;99.90
2002;DHT22;1003;48.002;7.788;2022-07-29T04:49:36;18.50;99.90
2002;DHT22;1003;48.002;7.788;2022-07-29T04:52:05;18.60;99.90
2002;DHT22;1003;48.002;7.788;2022-07-29T04:54:32;18.40;99.90
2002;DHT22;1003;48.002;7.788;2022-07-29T04:57:00;18.60;99.90
2002;DHT22;1003;48.002;7.788;2022-07-29T04:59:27;18.70;99.90
2002;DHT22;1003;48.002;7.788;2022-07-29T05:01:55;18.60;99.90
2002;DHT22;1003;48.002;7.788;2022-07-29T05:04:22;18.70;99.90
2002;DHT22;1003;48.002;7.788;2022-07-29T05:06:49;18.80;99.90
2002;DHT22;1003;48.002;7.788;2022-07-29T05:09:16;18.70;99.90
2002;DHT22;1003;48.002;7.788;2022-07-29T05:11:43;19.00;99.90
2002;DHT22;1003;48.002;7.788;2022-07-29T05:14:12;19.00;99.90
2002;DHT22;1003;48.002;7.788;2022-07-29T05:16:39;19.00;99.90
2002;DHT22;1003;48.002;7.788;2022-07-29T05:19:07;19.00;99.90
2002;DHT22;1003;48.002;7.788;2022-07-29T05:21:34;19.20;99.90
2002;DHT22;1003;48.002;7.788;2022-07-29T05:24:01;19.20;99.90
2002;DHT22;1003;48.002;7.788;2022-07-29T05:26:29;19.30;99.90
2002;DHT22;1003;48.002;7.788;2022-07-29T05:28:56;19.30;99.90
2002;DHT22;1003;48.002;7.788;2022-07-29T05:31:24;19.40;99.90
2002;DHT22;1003;48.002;7.788;2022-07-29T05:33:51;19.40;99.90
2002;DHT22;1003;48.002;7.788;2022-07-29T05:36:18;19.60;99.90
2002;DHT22;1003;48.002;7.788;2022-07-29T05:38:45;19.60;99.90
2002;DHT22;1003;48.002;7.788;2022-07-29T05:41:12;19.90;99.90
2002;DHT22;1003;48.002;7.788;2022-07-29T05:43:40;20.20;99.90
2002;DHT22;1003;48.002;7.788;2022-07-29T05:46:07;20.20;99.90
2002;DHT22;1003;48.002;7.788;2022-07-29T05:48:35;20.50;99.90
2002;DHT22;1003;48.002;7.788;2022-07-29T05:51:02;20.20;99.90
2002;DHT22;1003;48.002;7.788;2022-07-29T05:53:30;20.40;99.90
2002;DHT22;1003;48.002;7.788;2022-07-29T05:55:57;20.40;99.90
2002;DHT22;1003;48.002;7.788;2022-07-29T05:58:24;20.80;99.90
2002;DHT22;1003;48.002;7.788;2022-07-29T06:00:51;21.10;99.90
2002;DHT22;1003;48.002;7.788;2022-07-29T06:03:18;21.00;99.90
2002;DHT22;1003;48.002;7.788;2022-07-29T06:05:47;21.20;99.90
2002;DHT22;1003;48.002;7.788;2022-07-29T06:08:14;21.50;99.90
2002;DHT22;1003;48.002;7.788;2022-07-29T06:10:41;21.60;99.90
2002;DHT22;1003;48.002;7.788;2022-07-29T06:13:08;21.90;99.90
2002;DHT22;1003;48.002;7.788;2022-07-29T06:15:35;22.90;99.90
2002;DHT22;1003;48.002;7.788;2022-07-29T06:18:02;22.90;99.90
2002;DHT22;1003;48.002;7.788;2022-07-29T06:20:33;23.10;99.90
2002;DHT22;1003;48.002;7.788;2022-07-29T06:23:01;24.00;99.90
2002;DHT22;1003;48.002;7.788;2022-07-29T06:25:30;24.30;99.90
2002;DHT22;1003;48.002;7.788;2022-07-29T06:28:00;26.40;99.90
2002;DHT22;1003;48.002;7.788;2022-07-29T06:30:27;27.50;99.90
2002;DHT22;1003;48.002;7.788;2022-07-29T06:32:55;28.20;99.90
2002;DHT22;1003;48.002;7.788;2022-07-29T06:35:22;27.90;99.90
2002;DHT22;1003;48.002;7.788;2022-07-29T06:37:49;28.50;99.90
2002;DHT22;1003;48.002;7.788;2022-07-29T06:40:18;27.90;99.90
2002;DHT22;1003;48.002;7.788;2022-07-29T06:43:03;26.80;99.90
2002;DHT22;1003;48.002;7.788;2022-07-29T06:45:33;25.50;99.90
2002;DHT22;1003;48.002;7.788;2022-07-29T06:48:01;25.10;99.90
2002;DHT22;1003;48.002;7.788;2022-07-29T06:50:28;25.30;99.90
2002;DHT22;1003;48.002;7.788;2022-07-29T06:52:55;24.90;99.90
2002;DHT22;1003;48.002;7.788;2022-07-29T06:55:23;24.30;99.90
2002;DHT22;1003;48.002;7.788;2022-07-29T06:57:51;25.40;99.90
2002;DHT22;1003;48.002;7.788;2022-07-29T07:00:18;25.80;99.90
2002;DHT22;1003;48.002;7.788;2022-07-29T07:02:45;26.20;99.90
2002;DHT22;1003;48.002;7.788;2022-07-29T07:05:13;26.30;99.90
2002;DHT22;1003;48.002;7.788;2022-07-29T07:07:40;25.70;99.90
2002;DHT22;1003;48.002;7.788;2022-07-29T07:10:08;26.10;99.90
2002;DHT22;1003;48.002;7.788;2022-07-29T07:12:37;26.30;99.90
2002;DHT22;1003;48.002;7.788;2022-07-29T07:15:05;26.40;99.90
2002;DHT22;1003;48.002;7.788;2022-07-29T07:17:33;27.00;99.90
2002;DHT22;1003;48.002;7.788;2022-07-29T07:20:00;27.10;99.90
2002;DHT22;1003;48.002;7.788;2022-07-29T07:22:27;27.30;99.90
2002;DHT22;1003;48.002;7.788;2022-07-29T07:24:54;27.40;99.90
2002;DHT22;1003;48.002;7.788;2022-07-29T07:27:21;27.50;99.90
2002;DHT22;1003;48.002;7.788;2022-07-29T07:29:49;26.80;99.90
2002;DHT22;1003;48.002;7.788;2022-07-29T07:32:16;27.00;99.90
2002;DHT22;1003;48.002;7.788;2022-07-29T07:34:43;27.00;99.90
2002;DHT22;1003;48.002;7.788;2022-07-29T07:37:10;26.40;99.90
2002;DHT22;1003;48.002;7.788;2022-07-29T07:39:37;26.30;99.90
2002;DHT22;1003;48.002;7.788;2022-07-29T07:42:05;26.00;99.90
2002;DHT22;1003;48.002;7.788;2022-07-29T07:44:32;25.70;99.90
2002;DHT22;1003;48.002;7.788;2022-07-29T07:47:01;26.00;99.90
2002;DHT22;1003;48.002;7.788;2022-07-29T07:49:28;26.00;99.90
2002;DHT22;1003;48.002;7.788;2022-07-29T07:51:55;25.70;99.90
2002;DHT22;1003;48.002;7.788;2022-07-29T07:54:22;25.70;99.90
2002;DHT22;1003;48.002;7.788;2022-07-29T07:56:49;25.50;99.90
2002;DHT22;1003;48.002;7.788;2022-07-29T07:59:17;25.40;99.90
2002;DHT22;1003;48.002;7.788;2022-07-29T08:01:44;25.10;99.90
2002;DHT22;1003;48.002;7.788;2022-07-29T08:04:12;25.10;99.90
2002;DHT22;1003;48.002;7.788;2022-07-29T08:06:39;25.10;99.90
2002;DHT22;1003;48.002;7.788;2022-07-29T08:09:09;25.10;99.90
2002;DHT22;1003;48.002;7.788;2022-07-29T08:11:36;25.10;99.90
2002;DHT22;1003;48.002;7.788;2022-07-29T08:14:03;25.30;99.90
2002;DHT22;1003;48.002;7.788;2022-07-29T08:16:31;25.60;99.90
2002;DHT22;1003;48.002;7.788;2022-07-29T08:18:58;25.70;99.90
2002;DHT22;1003;48.002;7.788;2022-07-29T08:21:26;25.90;99.90
2002;DHT22;1003;48.002;7.788;2022-07-29T08:23:53;25.90;99.90
2002;DHT22;1003;48.002;7.788;2022-07-29T08:26:40;26.00;99.90
2002;DHT22;1003;48.002;7.788;2022-07-29T08:29:08;26.40;99.90
2002;DHT22;1003;48.002;7.788;2022-07-29T08:31:35;26.50;99.90
2002;DHT22;1003;48.002;7.788;2022-07-29T08:34:03;26.90;99.90
2002;DHT22;1003;48.002;7.788;2022-07-29T08:36:32;26.80;99.90
2002;DHT22;1003;48.002;7.788;2022-07-29T08:39:01;27.40;99.90
2002;DHT22;1003;48.002;7.788;2022-07-29T08:41:29;27.80;99.90
2002;DHT22;1003;48.002;7.788;2022-07-29T08:43:57;28.40;99.90
2002;DHT22;1003;48.002;7.788;2022-07-29T08:46:24;28.40;99.90
2002;DHT22;1003;48.002;7.788;2022-07-29T08:48:51;28.20;99.90
2002;DHT22;1003;48.002;7.788;2022-07-29T08:51:20;28.00;99.90
2002;DHT22;1003;48.002;7.788;2022-07-29T08:53:50;27.90;99.90
2002;DHT22;1003;48.002;7.788;2022-07-29T08:56:18;27.70;99.90
2002;DHT22;1003;48.002;7.788;2022-07-29T08:58:47;27.40;99.90
2002;DHT22;1003;48.002;7.788;2022-07-29T09:01:17;27.30;99.90
2002;DHT22;1003;48.002;7.788;2022-07-29T09:03:49;27.10;99.90
2002;DHT22;1003;48.002;7.788;2022-07-29T09:06:21;27.50;99.90
2002;DHT22;1003;48.002;7.788;2022-07-29T09:08:54;27.30;99.90
2002;DHT22;1003;48.002;7.788;2022-07-29T09:11:26;27.40;99.90
2002;DHT22;1003;48.002;7.788;2022-07-29T09:13:53;27.10;99.90
2002;DHT22;1003;48.002;7.788;2022-07-29T09:16:20;27.20;99.90
2002;DHT22;1003;48.002;7.788;2022-07-29T09:18:47;27.10;99.90
2002;DHT22;1003;48.002;7.788;2022-07-29T09:21:16;27.00;99.90
2002;DHT22;1003;48.002;7.788;2022-07-29T09:24:05;26.90;99.90
2002;DHT22;1003;48.002;7.788;2022-07-29T09:26:34;26.70;99.90
2002;DHT22;1003;48.002;7.788;2022-07-29T09:29:11;26.70;99.90
2002;DHT22;1003;48.002;7.788;2022-07-29T09:31:41;26.70;99.90
2002;DHT22;1003;48.002;7.788;2022-07-29T09:34:11;26.70;99.90
2002;DHT22;1003;48.002;7.788;2022-07-29T09:36:39;27.10;99.90
2002;DHT22;1003;48.002;7.788;2022-07-29T09:39:09;27.10;99.90
2002;DHT22;1003;48.002;7.788;2022-07-29T09:41:45;27.10;99.90
2002;DHT22;1003;48.002;7.788;2022-07-29T09:44:13;26.90;99.90
2002;DHT22;1003;48.002;7.788;2022-07-29T09:46:47;26.90;99.90
2002;DHT22;1003;48.002;7.788;2022-07-29T09:49:22;26.90;99.90
2002;DHT22;1003;48.002;7.788;2022-07-29T09:52:00;27.30;99.90
2002;DHT22;1003;48.002;7.788;2022-07-29T09:54:32;27.20;99.90
2002;DHT22;1003;48.002;7.788;2022-07-29T09:57:04;27.30;99.90
2002;DHT22;1003;48.002;7.788;2022-07-29T09:59:32;27.20;99.90
2002;DHT22;1003;48.002;7.788;2022-07-29T10:02:00;27.50;99.90
2002;DHT22;1003;48.002;7.788;2022-07-29T10:04:37;27.50;99.90
2002;DHT22;1003;48.002;7.788;2022-07-29T10:07:05;27.70;99.90
2002;DHT22;1003;48.002;7.788;2022-07-29T10:09:35;27.90;99.90
2002;DHT22;1003;48.002;7.788;2022-07-29T10:12:07;27.80;99.90
2002;DHT22;1003;48.002;7.788;2022-07-29T10:14:37;27.70;99.90
2002;DHT22;1003;48.002;7.788;2022-07-29T10:17:06;27.40;99.90
2002;DHT22;1003;48.002;7.788;2022-07-29T10:19:35;27.60;99.90
2002;DHT22;1003;48.002;7.788;2022-07-29T10:22:06;28.00;99.90
2002;DHT22;1003;48.002;7.788;2022-07-29T10:24:37;27.90;99.90
2002;DHT22;1003;48.002;7.788;2022-07-29T10:27:06;28.20;99.90
2002;DHT22;1003;48.002;7.788;2022-07-29T10:29:35;28.20;99.90
2002;DHT22;1003;48.002;7.788;2022-07-29T10:32:33;27.90;99.90
2002;DHT22;1003;48.002;7.788;2022-07-29T10:35:15;28.00;99.90
2002;DHT22;1003;48.002;7.788;2022-07-29T10:38:16;28.20;99.90
2002;DHT22;1003;48.002;7.788;2022-07-29T10:41:09;28.40;99.90
2002;DHT22;1003;48.002;7.788;2022-07-29T10:43:58;28.20;99.90
2002;DHT22;1003;48.002;7.788;2022-07-29T10:46:28;28.30;99.90
2002;DHT22;1003;48.002;7.788;2022-07-29T10:49:09;28.40;99.90
2002;DHT22;1003;48.002;7.788;2022-07-29T10:51:59;28.60;99.90
2002;DHT22;1003;48.002;7.788;2022-07-29T10:54:52;28.60;99.90
2002;DHT22;1003;48.002;7.788;2022-07-29T10:57:25;28.60;99.90
2002;DHT22;1003;48.002;7.788;2022-07-29T11:00:28;28.70;99.90
2002;DHT22;1003;48.002;7.788;2022-07-29T11:02:56;28.80;99.90
2002;DHT22;1003;48.002;7.788;2022-07-29T11:05:24;29.20;99.90
2002;DHT22;1003;48.002;7.788;2022-07-29T11:08:21;28.90;99.90
2002;DHT22;1003;48.002;7.788;2022-07-29T11:10:52;28.80;99.90
2002;DHT22;1003;48.002;7.788;2022-07-29T11:13:50;28.90;99.90
2002;DHT22;1003;48.002;7.788;2022-07-29T11:16:21;29.10;99.90
2002;DHT22;1003;48.002;7.788;2022-07-29T11:19:23;29.10;99.90
2002;DHT22;1003;48.002;7.788;2022-07-29T11:21:50;29.70;99.90
2002;DHT22;1003;48.002;7.788;2022-07-29T11:24:20;29.70;99.90
2002;DHT22;1003;48.002;7.788;2022-07-29T11:27:08;29.30;99.90
2002;DHT22;1003;48.002;7.788;2022-07-29T11:29:47;29.40;99.90
2002;DHT22;1003;48.002;7.788;2022-07-29T11:32:19;29.20;99.90
2002;DHT22;1003;48.002;7.788;2022-07-29T11:34:48;29.30;99.90
2002;DHT22;1003;48.002;7.788;2022-07-29T11:37:21;29.40;99.90
2002;DHT22;1003;48.002;7.788;2022-07-29T11:40:08;28.90;99.90
2002;DHT22;1003;48.002;7.788;2022-07-29T11:42:39;28.40;99.90
2002;DHT22;1003;48.002;7.788;2022-07-29T11:45:14;28.40;99.90
2002;DHT22;1003;48.002;7.788;2022-07-29T11:47:56;28.40;99.90
2002;DHT22;1003;48.002;7.788;2022-07-29T11:50:30;28.10;99.90
2002;DHT22;1003;48.002;7.788;2022-07-29T11:53:01;28.10;99.90
2002;DHT22;1003;48.002;7.788;2022-07-29T11:55:30;28.20;99.90
2002;DHT22;1003;48.002;7.788;2022-07-29T11:58:01;28.20;99.90
2002;DHT22;1003;48.002;7.788;2022-07-29T12:00:32;28.40;99.90
2002;DHT22;1003;48.002;7.788;2022-07-29T12:03:03;28.20;99.90
2002;DHT22;1003;48.002;7.788;2022-07-29T12:05:34;28.40;99.90
2002;DHT22;1003;48.002;7.788;2022-07-29T12:08:12;28.20;99.90
2002;DHT22;1003;48.002;7.788;2022-07-29T12:10:42;28.20;99.90
2002;DHT22;1003;48.002;7.788;2022-07-29T12:13:10;28.10;99.90
2002;DHT22;1003;48.002;7.788;2022-07-29T12:15:39;28.20;99.90
2002;DHT22;1003;48.002;7.788;2022-07-29T12:18:17;27.90;99.90
2002;DHT22;1003;48.002;7.788;2022-07-29T12:20:46;28.10;99.90
2002;DHT22;1003;48.002;7.788;2022-07-29T12:23:15;28.10;99.90
2002;DHT22;1003;48.002;7.788;2022-07-29T12:25:43;27.90;99.90
2002;DHT22;1003;48.002;7.788;2022-07-29T12:28:12;27.50;99.90
2002;DHT22;1003;48.002;7.788;2022-07-29T12:30:47;27.70;99.90
2002;DHT22;1003;48.002;7.788;2022-07-29T12:33:18;27.80;99.90
2002;DHT22;1003;48.002;7.788;2022-07-29T12:35:49;28.10;99.90
2002;DHT22;1003;48.002;7.788;2022-07-29T12:38:17;28.30;99.90
2002;DHT22;1003;48.002;7.788;2022-07-29T12:40:46;28.50;99.90
2002;DHT22;1003;48.002;7.788;2022-07-29T12:43:15;28.60;99.90
2002;DHT22;1003;48.002;7.788;2022-07-29T12:45:46;28.40;99.90
2002;DHT22;1003;48.002;7.788;2022-07-29T12:48:16;28.40;99.90
2002;DHT22;1003;48.002;7.788;2022-07-29T12:50:56;28.40;99.90
2002;DHT22;1003;48.002;7.788;2022-07-29T12:53:24;28.40;99.90
2002;DHT22;1003;48.002;7.788;2022-07-29T12:55:53;28.10;99.90
2002;DHT22;1003;48.002;7.788;2022-07-29T12:58:32;28.20;99.90
2002;DHT22;1003;48.002;7.788;2022-07-29T13:01:08;28.30;99.90
2002;DHT22;1003;48.002;7.788;2022-07-29T13:03:49;28.10;99.90
2002;DHT22;1003;48.002;7.788;2022-07-29T13:06:35;27.60;99.90
2002;DHT22;1003;48.002;7.788;2022-07-29T13:09:07;28.00;99.90
2002;DHT22;1003;48.002;7.788;2022-07-29T13:11:38;28.10;99.90
2002;DHT22;1003;48.002;7.788;2022-07-29T13:14:07;28.30;99.90
2002;DHT22;1003;48.002;7.788;2022-07-29T13:17:00;27.90;99.90
2002;DHT22;1003;48.002;7.788;2022-07-29T13:19:37;27.70;99.90
2002;DHT22;1003;48.002;7.788;2022-07-29T13:22:07;27.70;99.90
2002;DHT22;1003;48.002;7.788;2022-07-29T13:24:45;27.70;99.90
2002;DHT22;1003;48.002;7.788;2022-07-29T13:27:14;27.80;99.90
2002;DHT22;1003;48.002;7.788;2022-07-29T13:29:42;27.90;99.90
2002;DHT22;1003;48.002;7.788;2022-07-29T13:32:11;27.80;99.90
2002;DHT22;1003;48.002;7.788;2022-07-29T13:34:39;27.90;99.90
2002;DHT22;1003;48.002;7.788;2022-07-29T13:37:06;27.90;99.90
2002;DHT22;1003;48.002;7.788;2022-07-29T13:39:33;28.00;99.90
2002;DHT22;1003;48.002;7.788;2022-07-29T13:42:01;28.10;99.90
2002;DHT22;1003;48.002;7.788;2022-07-29T13:44:28;28.10;99.90
2002;DHT22;1003;48.002;7.788;2022-07-29T13:46:55;28.30;99.90
2002;DHT22;1003;48.002;7.788;2022-07-29T13:49:25;28.30;99.90
2002;DHT22;1003;48.002;7.788;2022-07-29T13:51:53;28.20;99.90
2002;DHT22;1003;48.002;7.788;2022-07-29T13:54:20;28.00;99.90
2002;DHT22;1003;48.002;7.788;2022-07-29T13:56:47;28.20;99.90
2002;DHT22;1003;48.002;7.788;2022-07-29T13:59:14;28.20;99.90
2002;DHT22;1003;48.002;7.788;2022-07-29T14:01:41;27.90;99.90
2002;DHT22;1003;48.002;7.788;2022-07-29T14:04:09;27.80;99.90
2002;DHT22;1003;48.002;7.788;2022-07-29T14:06:38;27.80;99.90
2002;DHT22;1003;48.002;7.788;2022-07-29T14:09:05;27.40;99.90
2002;DHT22;1003;48.002;7.788;2022-07-29T14:11:34;27.40;99.90
2002;DHT22;1003;48.002;7.788;2022-07-29T14:14:01;27.40;99.90
2002;DHT22;1003;48.002;7.788;2022-07-29T14:16:28;27.20;99.90
2002;DHT22;1003;48.002;7.788;2022-07-29T14:18:55;27.10;99.90
2002;DHT22;1003;48.002;7.788;2022-07-29T14:21:22;27.00;99.90
2002;DHT22;1003;48.002;7.788;2022-07-29T14:23:51;27.10;99.90
2002;DHT22;1003;48.002;7.788;2022-07-29T14:26:20;27.10;99.90
2002;DHT22;1003;48.002;7.788;2022-07-29T14:28:52;27.10;99.90
2002;DHT22;1003;48.002;7.788;2022-07-29T14:31:19;27.20;99.90
2002;DHT22;1003;48.002;7.788;2022-07-29T14:33:46;27.30;99.90
2002;DHT22;1003;48.002;7.788;2022-07-29T14:36:14;27.20;99.90
2002;DHT22;1003;48.002;7.788;2022-07-29T14:38:41;27.40;99.90
2002;DHT22;1003;48.002;7.788;2022-07-29T14:41:09;27.60;99.90
2002;DHT22;1003;48.002;7.788;2022-07-29T14:43:36;27.50;99.90
2002;DHT22;1003;48.002;7.788;2022-07-29T14:46:04;27.40;99.90
2002;DHT22;1003;48.002;7.788;2022-07-29T14:48:32;27.10;99.90
2002;DHT22;1003;48.002;7.788;2022-07-29T14:51:00;27.10;99.90
2002;DHT22;1003;48.002;7.788;2022-07-29T14:53:27;27.10;99.90
2002;DHT22;1003;48.002;7.788;2022-07-29T14:55:54;27.20;99.90
2002;DHT22;1003;48.002;7.788;2022-07-29T14:58:22;27.30;99.90
2002;DHT22;1003;48.002;7.788;2022-07-29T15:00:49;27.60;99.90
2002;DHT22;1003;48.002;7.788;2022-07-29T15:03:17;27.60;99.90
2002;DHT22;1003;48.002;7.788;2022-07-29T15:05:45;27.50;99.90
2002;DHT22;1003;48.002;7.788;2022-07-29T15:08:12;27.70;99.90
2002;DHT22;1003;48.002;7.788;2022-07-29T15:10:39;27.70;99.90
2002;DHT22;1003;48.002;7.788;2022-07-29T15:13:06;27.50;99.90
2002;DHT22;1003;48.002;7.788;2022-07-29T15:15:35;27.60;99.90
2002;DHT22;1003;48.002;7.788;2022-07-29T15:18:02;27.50;99.90
2002;DHT22;1003;48.002;7.788;2022-07-29T15:20:29;27.40;99.90
2002;DHT22;1003;48.002;7.788;2022-07-29T15:22:56;27.30;99.90
2002;DHT22;1003;48.002;7.788;2022-07-29T15:25:24;27.30;99.90
2002;DHT22;1003;48.002;7.788;2022-07-29T15:27:52;27.30;99.90
2002;DHT22;1003;48.002;7.788;2022-07-29T15:30:19;27.20;99.90
2002;DHT22;1003;48.002;7.788;2022-07-29T15:32:47;27.00;99.90
2002;DHT22;1003;48.002;7.788;2022-07-29T15:35:14;27.10;99.90
2002;DHT22;1003;48.002;7.788;2022-07-29T15:37:41;27.20;99.90
2002;DHT22;1003;48.002;7.788;2022-07-29T15:40:10;27.40;99.90
2002;DHT22;1003;48.002;7.788;2022-07-29T15:42:37;27.00;99.90
2002;DHT22;1003;48.002;7.788;2022-07-29T15:45:05;27.20;99.90
2002;DHT22;1003;48.002;7.788;2022-07-29T15:47:34;27.60;99.90
2002;DHT22;1003;48.002;7.788;2022-07-29T15:50:04;27.50;99.90
2002;DHT22;1003;48.002;7.788;2022-07-29T15:52:37;27.30;99.90
2002;DHT22;1003;48.002;7.788;2022-07-29T15:55:05;27.20;99.90
2002;DHT22;1003;48.002;7.788;2022-07-29T15:57:32;27.20;99.90
2002;DHT22;1003;48.002;7.788;2022-07-29T15:59:59;26.80;99.90
2002;DHT22;1003;48.002;7.788;2022-07-29T16:02:27;27.20;99.90
2002;DHT22;1003;48.002;7.788;2022-07-29T16:04:54;27.50;99.90
2002;DHT22;1003;48.002;7.788;2022-07-29T16:07:22;27.50;99.90
2002;DHT22;1003;48.002;7.788;2022-07-29T16:09:49;27.50;99.90
2002;DHT22;1003;48.002;7.788;2022-07-29T16:12:16;27.40;99.90
2002;DHT22;1003;48.002;7.788;2022-07-29T16:14:43;27.80;99.90
2002;DHT22;1003;48.002;7.788;2022-07-29T16:17:13;27.70;99.90
2002;DHT22;1003;48.002;7.788;2022-07-29T16:19:41;27.90;99.90
2002;DHT22;1003;48.002;7.788;2022-07-29T16:22:08;27.90;99.90
2002;DHT22;1003;48.002;7.788;2022-07-29T16:24:37;27.70;99.90